Time;durP1;ratioP1;P1;durP2;ratioP2;P2;SDS_P1;SDS_P2;PMS_P1;PMS_P2;Temp;Humidity;BMP_temperature;BMP_pressure;BME280_temperature;BME280_humidity;BME280_pressure;Samples;Min_cycle;Max_cycle;Signal;HPM_P1;HPM_P2
2021/08/09 00:00:07;;;;;;;2.65;1.40;;;;;;;;;;5056203;28;20020;-74
2021/08/09 00:02:33;;;;;;;2.22;1.40;;;;;;;;;;5065695;28;20036;-74
2021/08/09 00:04:59;;;;;;;2.90;1.45;;;;;;;;;;5063555;28;20142;-74
2021/08/09 00:07:25;;;;;;;1.40;1.30;;;;;;;;;;5054277;28;20500;-73
2021/08/09 00:09:51;;;;;;;2.90;1.48;;;;;;;;;;5058821;28;20025;-75
2021/08/09 00:12:17;;;;;;;2.40;1.60;;;;;;;;;;5064289;28;20035;-74
2021/08/09 00:14:43;;;;;;;2.78;1.30;;;;;;;;;;5062419;28;20013;-73
2021/08/09 00:17:09;;;;;;;4.88;2.28;;;;;;;;;;5055559;28;20044;-74
2021/08/09 00:19:34;;;;;;;2.45;1.23;;;;;;;;;;5058728;28;20021;-74
2021/08/09 00:22:00;;;;;;;2.00;1.48;;;;;;;;;;5062422;28;20029;-74
2021/08/09 00:24:28;;;;;;;4.00;1.40;;;;;;;;;;5061983;28;20356;-74
2021/08/09 00:26:54;;;;;;;2.67;1.60;;;;;;;;;;5054838;28;20020;-74
2021/08/09 00:29:20;;;;;;;2.45;1.65;;;;;;;;;;5063846;28;20038;-73
2021/08/09 00:31:46;;;;;;;2.88;1.50;;;;;;;;;;5061993;28;20116;-74
2021/08/09 00:34:12;;;;;;;1.50;1.40;;;;;;;;;;5066193;28;20087;-74
2021/08/09 00:36:37;;;;;;;3.30;1.48;;;;;;;;;;5061148;28;20124;-74
2021/08/09 00:39:03;;;;;;;1.98;1.48;;;;;;;;;;5058403;28;20021;-73
2021/08/09 00:41:29;;;;;;;3.90;1.73;;;;;;;;;;5055592;28;20017;-74
2021/08/09 00:43:55;;;;;;;2.97;1.40;;;;;;;;;;5057997;28;20481;-74
2021/08/09 00:46:21;;;;;;;4.18;1.20;;;;;;;;;;5057886;28;20034;-73
2021/08/09 00:48:47;;;;;;;1.60;1.27;;;;;;;;;;5056475;28;20032;-74
2021/08/09 00:51:13;;;;;;;1.88;1.60;;;;;;;;;;5063221;28;20036;-74
2021/08/09 00:53:39;;;;;;;3.67;1.20;;;;;;;;;;5067543;28;20032;-74
2021/08/09 00:56:05;;;;;;;3.33;1.38;;;;;;;;;;5061813;28;20032;-74
2021/08/09 00:58:32;;;;;;;1.40;1.17;;;;;;;;;;5061222;28;20029;-74
2021/08/09 01:00:58;;;;;;;2.78;1.55;;;;;;;;;;5049495;28;20527;-74
2021/08/09 01:03:24;;;;;;;2.22;1.50;;;;;;;;;;5058920;28;20547;-74
2021/08/09 01:05:50;;;;;;;1.60;1.30;;;;;;;;;;5054905;28;20036;-74
2021/08/09 01:08:23;;;;;;;1.90;1.27;;;;;;;;;;5058744;28;20541;-74
2021/08/09 01:11:21;;;;;;;2.08;1.20;;;;;;;;;;5059075;28;20044;-73
2021/08/09 01:13:50;;;;;;;1.42;1.33;;;;;;;;;;5048818;28;20075;-74
2021/08/09 01:16:17;;;;;;;1.20;1.10;;;;;;;;;;5055824;28;20029;-74
2021/08/09 01:18:44;;;;;;;1.88;1.15;;;;;;;;;;5051513;28;20057;-74
2021/08/09 01:21:11;;;;;;;2.92;1.70;;;;;;;;;;5059835;28;20032;-75
2021/08/09 01:23:55;;;;;;;4.32;1.20;;;;;;;;;;5055505;28;20069;-74
2021/08/09 01:26:27;;;;;;;2.63;1.20;;;;;;;;;;5067063;28;20135;-74
2021/08/09 01:28:55;;;;;;;2.75;1.55;;;;;;;;;;5063751;28;20056;-74
2021/08/09 01:31:23;;;;;;;2.42;1.33;;;;;;;;;;5063270;28;20051;-74
2021/08/09 01:33:49;;;;;;;1.33;1.23;;;;;;;;;;5065097;28;20028;-75
2021/08/09 01:36:15;;;;;;;1.70;1.33;;;;;;;;;;5056040;28;20028;-74
2021/08/09 01:38:42;;;;;;;4.65;1.30;;;;;;;;;;5062920;28;20036;-73
2021/08/09 01:41:08;;;;;;;3.63;1.45;;;;;;;;;;5060684;28;20032;-74
2021/08/09 01:43:35;;;;;;;1.95;1.63;;;;;;;;;;5070328;28;20025;-73
2021/08/09 01:46:01;;;;;;;3.63;1.30;;;;;;;;;;5058226;28;20120;-73
2021/08/09 01:48:28;;;;;;;8.93;1.40;;;;;;;;;;5053582;28;20028;-73
2021/08/09 01:50:55;;;;;;;1.85;1.50;;;;;;;;;;5055954;28;20037;-73
2021/08/09 01:53:21;;;;;;;1.50;1.38;;;;;;;;;;5061650;28;20114;-73
2021/08/09 01:55:47;;;;;;;3.20;1.48;;;;;;;;;;5061119;28;20028;-73
2021/08/09 01:58:14;;;;;;;2.72;1.30;;;;;;;;;;5058329;28;20025;-73
2021/08/09 02:00:40;;;;;;;3.47;1.20;;;;;;;;;;5058376;28;20045;-73
2021/08/09 02:03:06;;;;;;;1.63;1.23;;;;;;;;;;5063605;28;20040;-73
2021/08/09 02:05:32;;;;;;;2.45;1.38;;;;;;;;;;5069733;28;20106;-73
2021/08/09 02:07:58;;;;;;;2.03;1.15;;;;;;;;;;5063959;28;20032;-73
2021/08/09 02:10:25;;;;;;;1.55;1.13;;;;;;;;;;5061374;28;20037;-73
2021/08/09 02:12:58;;;;;;;2.20;1.50;;;;;;;;;;5058393;28;20380;-73
2021/08/09 02:15:29;;;;;;;1.98;1.40;;;;;;;;;;5065712;28;20119;-73
2021/08/09 02:17:59;;;;;;;2.42;1.38;;;;;;;;;;5062922;28;20048;-73
2021/08/09 02:20:29;;;;;;;2.17;1.38;;;;;;;;;;5074724;28;20036;-73
2021/08/09 02:22:57;;;;;;;2.83;1.50;;;;;;;;;;5063978;28;20471;-74
2021/08/09 02:25:26;;;;;;;2.22;1.30;;;;;;;;;;5066010;28;20020;-73
2021/08/09 02:27:58;;;;;;;1.52;1.40;;;;;;;;;;5059866;28;20555;-73
2021/08/09 02:30:25;;;;;;;1.80;1.33;;;;;;;;;;5068280;28;20536;-73
2021/08/09 02:32:52;;;;;;;3.55;1.40;;;;;;;;;;5069791;28;20094;-73
2021/08/09 02:35:20;;;;;;;3.58;1.50;;;;;;;;;;5061799;28;20025;-73
2021/08/09 02:37:46;;;;;;;4.35;1.27;;;;;;;;;;5064816;28;20028;-74
2021/08/09 02:40:13;;;;;;;1.60;1.30;;;;;;;;;;5057951;28;20602;-73
2021/08/09 02:42:39;;;;;;;3.72;1.20;;;;;;;;;;5060377;28;20035;-73
2021/08/09 02:45:06;;;;;;;2.30;1.38;;;;;;;;;;5058072;28;20509;-73
2021/08/09 02:47:37;;;;;;;2.90;1.30;;;;;;;;;;5060558;28;20032;-73
2021/08/09 02:50:03;;;;;;;1.45;1.15;;;;;;;;;;5061594;28;20029;-73
2021/08/09 02:52:29;;;;;;;1.83;1.38;;;;;;;;;;5068693;28;20064;-74
2021/08/09 02:54:56;;;;;;;6.57;1.35;;;;;;;;;;5065558;28;20104;-73
2021/08/09 02:57:25;;;;;;;2.45;1.50;;;;;;;;;;5061087;28;20033;-73
2021/08/09 02:59:51;;;;;;;1.92;1.35;;;;;;;;;;5061210;28;20024;-73
2021/08/09 03:02:18;;;;;;;1.45;1.35;;;;;;;;;;5060827;28;20035;-73
2021/08/09 03:04:44;;;;;;;3.10;1.65;;;;;;;;;;5056552;28;20040;-73
2021/08/09 03:07:11;;;;;;;2.08;1.48;;;;;;;;;;5067968;28;20025;-72
2021/08/09 03:09:37;;;;;;;2.40;1.40;;;;;;;;;;5063239;28;20081;-73
2021/08/09 03:12:05;;;;;;;1.77;1.50;;;;;;;;;;5064955;28;20032;-73
2021/08/09 03:14:31;;;;;;;1.50;1.40;;;;;;;;;;5053415;28;20064;-73
2021/08/09 03:17:02;;;;;;;1.30;1.20;;;;;;;;;;5062909;28;20112;-74
2021/08/09 03:19:27;;;;;;;2.90;1.45;;;;;;;;;;5056141;28;20036;-73
2021/08/09 03:21:55;;;;;;;3.08;1.50;;;;;;;;;;5065742;28;20017;-74
2021/08/09 03:24:21;;;;;;;1.58;1.48;;;;;;;;;;5057242;28;20028;-73
2021/08/09 03:26:48;;;;;;;1.25;1.15;;;;;;;;;;5058954;28;20029;-73
2021/08/09 03:29:14;;;;;;;2.08;1.42;;;;;;;;;;5061148;28;20040;-73
2021/08/09 03:31:40;;;;;;;2.65;1.50;;;;;;;;;;5063165;28;20032;-73
2021/08/09 03:34:06;;;;;;;2.10;1.48;;;;;;;;;;5063717;28;20036;-72
2021/08/09 03:36:32;;;;;;;2.13;1.30;;;;;;;;;;5058232;28;20036;-73
2021/08/09 03:38:58;;;;;;;3.45;1.85;;;;;;;;;;5063906;28;20028;-73
2021/08/09 03:41:23;;;;;;;2.40;1.65;;;;;;;;;;5061310;28;20177;-73
2021/08/09 03:43:49;;;;;;;2.53;1.70;;;;;;;;;;5058969;28;20028;-73
2021/08/09 03:46:15;;;;;;;1.63;1.38;;;;;;;;;;5065352;28;20047;-73
2021/08/09 03:48:41;;;;;;;1.40;1.17;;;;;;;;;;5056328;28;20067;-73
2021/08/09 03:51:07;;;;;;;3.10;1.70;;;;;;;;;;5060731;28;20029;-73
2021/08/09 03:53:33;;;;;;;1.38;1.20;;;;;;;;;;5065035;28;20088;-73
2021/08/09 03:55:59;;;;;;;3.35;1.52;;;;;;;;;;5059820;28;20119;-73
2021/08/09 03:58:25;;;;;;;2.33;1.65;;;;;;;;;;5055175;28;20020;-73
2021/08/09 04:00:51;;;;;;;4.15;1.52;;;;;;;;;;5061772;28;20469;-73
2021/08/09 04:03:17;;;;;;;2.00;1.30;;;;;;;;;;5065586;28;20415;-73
2021/08/09 04:05:43;;;;;;;3.75;1.70;;;;;;;;;;5063317;28;20591;-73
2021/08/09 04:08:09;;;;;;;1.80;1.50;;;;;;;;;;5060997;28;20067;-73
2021/08/09 04:10:35;;;;;;;1.80;1.30;;;;;;;;;;5058902;28;20052;-73
2021/08/09 04:13:01;;;;;;;1.60;1.40;;;;;;;;;;5055142;28;20440;-73
2021/08/09 04:15:27;;;;;;;1.65;1.40;;;;;;;;;;5059616;28;20510;-72
2021/08/09 04:17:53;;;;;;;2.50;1.63;;;;;;;;;;5059293;28;20076;-73
2021/08/09 04:20:19;;;;;;;2.00;1.35;;;;;;;;;;5061240;28;20028;-72
2021/08/09 04:22:45;;;;;;;1.20;1.10;;;;;;;;;;5067144;28;22027;-73
2021/08/09 04:25:11;;;;;;;2.20;1.50;;;;;;;;;;5057104;28;20025;-73
2021/08/09 04:27:37;;;;;;;2.30;1.55;;;;;;;;;;5054810;28;20052;-73
2021/08/09 04:30:03;;;;;;;2.92;1.63;;;;;;;;;;5052855;28;20116;-73
2021/08/09 04:32:37;;;;;;;2.97;1.63;;;;;;;;;;5060227;28;20025;-73
2021/08/09 04:35:04;;;;;;;2.35;1.35;;;;;;;;;;5065269;28;20028;-73
2021/08/09 04:37:30;;;;;;;1.95;1.40;;;;;;;;;;5051934;28;20026;-73
2021/08/09 04:39:56;;;;;;;4.65;1.65;;;;;;;;;;5059212;28;20031;-73
2021/08/09 04:42:22;;;;;;;1.90;1.52;;;;;;;;;;5057063;28;20028;-74
2021/08/09 04:44:48;;;;;;;2.88;1.77;;;;;;;;;;5056947;28;20056;-73
2021/08/09 04:47:14;;;;;;;4.32;1.50;;;;;;;;;;5056268;28;20017;-74
2021/08/09 04:49:42;;;;;;;2.63;1.40;;;;;;;;;;5058937;28;20442;-74
2021/08/09 04:52:07;;;;;;;4.03;1.42;;;;;;;;;;5056464;28;20033;-75
2021/08/09 04:54:33;;;;;;;7.88;2.08;;;;;;;;;;5062713;28;20021;-74
2021/08/09 04:56:59;;;;;;;2.70;1.80;;;;;;;;;;5060388;28;20605;-74
2021/08/09 04:59:25;;;;;;;3.80;1.90;;;;;;;;;;5055812;28;20036;-74
2021/08/09 05:01:51;;;;;;;7.03;1.80;;;;;;;;;;5060072;28;20335;-74
2021/08/09 05:04:17;;;;;;;2.67;1.70;;;;;;;;;;5059067;28;20028;-73
2021/08/09 05:06:43;;;;;;;9.02;2.08;;;;;;;;;;5064999;28;20483;-74
2021/08/09 05:09:09;;;;;;;2.90;1.70;;;;;;;;;;5059248;28;20036;-73
2021/08/09 05:11:35;;;;;;;2.78;1.80;;;;;;;;;;5064588;28;20035;-74
2021/08/09 05:14:01;;;;;;;3.38;1.73;;;;;;;;;;5055759;28;20040;-73
2021/08/09 05:16:27;;;;;;;2.15;1.45;;;;;;;;;;5058238;28;20440;-78
2021/08/09 05:18:56;;;;;;;7.85;1.75;;;;;;;;;;5062777;28;20604;-74
2021/08/09 05:21:22;;;;;;;7.72;1.80;;;;;;;;;;5069562;28;20418;-74
2021/08/09 05:23:48;;;;;;;4.35;1.55;;;;;;;;;;5058562;28;20021;-73
2021/08/09 05:26:15;;;;;;;2.85;1.75;;;;;;;;;;5063945;28;20032;-74
2021/08/09 05:28:41;;;;;;;2.65;1.67;;;;;;;;;;5063483;28;20040;-75
2021/08/09 05:31:25;;;;;;;3.67;1.73;;;;;;;;;;5062435;28;20071;-74
2021/08/09 05:33:52;;;;;;;2.35;1.63;;;;;;;;;;5054960;28;20058;-75
2021/08/09 05:36:18;;;;;;;4.63;1.80;;;;;;;;;;5063159;28;20427;-73
2021/08/09 05:38:44;;;;;;;2.85;1.52;;;;;;;;;;5067967;28;20032;-74
2021/08/09 05:41:10;;;;;;;3.90;1.80;;;;;;;;;;5066711;28;20052;-74
2021/08/09 05:43:36;;;;;;;3.03;1.40;;;;;;;;;;5068219;28;20028;-73
2021/08/09 05:46:02;;;;;;;4.45;1.58;;;;;;;;;;5059785;28;20039;-74
2021/08/09 05:48:28;;;;;;;2.00;1.45;;;;;;;;;;5065253;28;20442;-74
2021/08/09 05:50:53;;;;;;;2.30;1.60;;;;;;;;;;5062280;28;20033;-73
2021/08/09 05:53:19;;;;;;;2.20;1.58;;;;;;;;;;5068261;28;20040;-74
2021/08/09 05:55:45;;;;;;;2.33;1.25;;;;;;;;;;5066334;28;20115;-76
2021/08/09 05:58:11;;;;;;;3.22;1.60;;;;;;;;;;5064813;28;20039;-73
2021/08/09 06:00:37;;;;;;;2.63;1.80;;;;;;;;;;5080394;28;20028;-74
2021/08/09 06:03:03;;;;;;;2.15;1.30;;;;;;;;;;5069383;28;20024;-74
2021/08/09 06:05:30;;;;;;;4.38;1.40;;;;;;;;;;5070611;28;20075;-74
2021/08/09 06:07:55;;;;;;;2.00;1.42;;;;;;;;;;5074146;28;20085;-76
2021/08/09 06:10:22;;;;;;;1.80;1.40;;;;;;;;;;5069299;28;20550;-76
2021/08/09 06:12:48;;;;;;;4.10;1.73;;;;;;;;;;5071379;28;20387;-75
2021/08/09 06:15:14;;;;;;;3.50;1.55;;;;;;;;;;5071212;28;20028;-75
2021/08/09 06:17:40;;;;;;;3.17;1.73;;;;;;;;;;5069113;28;20436;-75
2021/08/09 06:20:06;;;;;;;1.83;1.40;;;;;;;;;;5071505;28;20507;-75
2021/08/09 06:22:32;;;;;;;3.55;2.05;;;;;;;;;;5067155;28;20024;-74
2021/08/09 06:24:58;;;;;;;5.03;1.60;;;;;;;;;;5059918;28;20032;-75
2021/08/09 06:27:24;;;;;;;4.35;1.60;;;;;;;;;;5059050;28;20040;-74
2021/08/09 06:29:50;;;;;;;2.03;1.42;;;;;;;;;;5058026;28;20635;-74
2021/08/09 06:32:16;;;;;;;2.83;1.50;;;;;;;;;;5069469;28;20462;-75
2021/08/09 06:34:42;;;;;;;1.50;1.40;;;;;;;;;;5069241;28;20009;-76
2021/08/09 06:37:08;;;;;;;2.47;1.50;;;;;;;;;;5078970;28;20031;-75
2021/08/09 06:39:34;;;;;;;3.20;1.40;;;;;;;;;;5072135;28;20119;-76
2021/08/09 06:42:03;;;;;;;7.75;3.55;;;;;;;;;;5065671;28;20037;-75
2021/08/09 06:44:32;;;;;;;1.52;1.30;;;;;;;;;;5066240;28;20138;-76
2021/08/09 06:47:01;;;;;;;1.38;1.27;;;;;;;;;;5062892;28;20138;-75
2021/08/09 06:49:27;;;;;;;3.13;1.50;;;;;;;;;;5069797;28;20047;-76
2021/08/09 06:51:54;;;;;;;3.50;1.50;;;;;;;;;;5062960;28;20479;-77
2021/08/09 06:54:20;;;;;;;6.55;1.60;;;;;;;;;;5062924;28;20025;-78
2021/08/09 06:56:47;;;;;;;2.05;1.40;;;;;;;;;;5060296;28;20036;-78
2021/08/09 06:59:13;;;;;;;3.13;1.58;;;;;;;;;;5063871;28;20094;-77
2021/08/09 07:01:39;;;;;;;2.17;1.38;;;;;;;;;;5069384;28;20020;-77
2021/08/09 07:04:05;;;;;;;1.20;1.10;;;;;;;;;;5058720;28;20032;-77
2021/08/09 07:06:57;;;;;;;2.55;1.40;;;;;;;;;;5068376;28;20108;-73
2021/08/09 07:09:23;;;;;;;1.73;1.30;;;;;;;;;;5036545;22;20116;-74
2021/08/09 07:11:49;;;;;;;4.80;1.52;;;;;;;;;;5006214;28;20030;-72
2021/08/09 07:14:19;;;;;;;2.55;1.40;;;;;;;;;;5008104;28;20084;-71
2021/08/09 07:16:44;;;;;;;2.85;1.60;;;;;;;;;;5007870;28;20030;-72
2021/08/09 07:19:11;;;;;;;3.03;1.35;;;;;;;;;;5002875;28;20439;-72
2021/08/09 07:21:37;;;;;;;3.65;1.42;;;;;;;;;;4998225;28;20046;-71
2021/08/09 07:24:03;;;;;;;2.40;1.60;;;;;;;;;;5001544;28;20511;-72
2021/08/09 07:26:30;;;;;;;2.38;1.50;;;;;;;;;;5006814;28;20141;-72
2021/08/09 07:28:56;;;;;;;3.38;1.75;;;;;;;;;;5009076;28;20045;-72
2021/08/09 07:31:22;;;;;;;1.38;1.23;;;;;;;;;;5007139;28;20627;-73
2021/08/09 07:33:48;;;;;;;1.50;1.40;;;;;;;;;;5009356;28;20032;-72
2021/08/09 07:36:14;;;;;;;4.70;1.35;;;;;;;;;;5008069;28;20026;-73
2021/08/09 07:38:40;;;;;;;2.15;1.40;;;;;;;;;;4999969;28;20046;-73
2021/08/09 07:41:06;;;;;;;1.40;1.30;;;;;;;;;;5006579;28;20028;-72
2021/08/09 07:43:32;;;;;;;4.57;1.42;;;;;;;;;;5007954;28;20104;-73
2021/08/09 07:45:58;;;;;;;3.70;1.33;;;;;;;;;;5007623;28;20547;-73
2021/08/09 07:48:24;;;;;;;4.13;1.38;;;;;;;;;;4994501;28;20034;-73
2021/08/09 07:50:50;;;;;;;3.53;1.30;;;;;;;;;;5004885;28;20037;-73
2021/08/09 07:53:16;;;;;;;3.38;1.88;;;;;;;;;;5006247;28;20535;-73
2021/08/09 07:55:42;;;;;;;5.18;1.30;;;;;;;;;;5006314;28;20105;-73
2021/08/09 07:58:08;;;;;;;3.20;1.50;;;;;;;;;;4991455;28;20034;-73
2021/08/09 08:00:34;;;;;;;2.55;1.42;;;;;;;;;;4993900;28;20068;-73
2021/08/09 08:03:01;;;;;;;4.03;1.65;;;;;;;;;;4999186;28;20480;-74
2021/08/09 08:05:27;;;;;;;1.77;1.27;;;;;;;;;;5003775;28;20030;-73
2021/08/09 08:07:53;;;;;;;4.30;1.60;;;;;;;;;;5007439;28;20505;-74
2021/08/09 08:10:19;;;;;;;3.13;1.70;;;;;;;;;;4986995;28;20046;-73
2021/08/09 08:12:45;;;;;;;4.50;1.55;;;;;;;;;;4985204;28;20026;-73
2021/08/09 08:15:11;;;;;;;3.80;1.60;;;;;;;;;;4974742;28;20043;-73
2021/08/09 08:17:37;;;;;;;5.82;1.50;;;;;;;;;;4987072;28;20038;-73
2021/08/09 08:20:03;;;;;;;2.50;1.65;;;;;;;;;;4985656;28;20126;-73
2021/08/09 08:22:29;;;;;;;2.10;1.58;;;;;;;;;;4978611;28;20026;-73
2021/08/09 08:24:55;;;;;;;2.60;1.50;;;;;;;;;;4985331;28;20033;-73
2021/08/09 08:27:21;;;;;;;3.13;1.48;;;;;;;;;;4988858;28;20037;-74
2021/08/09 08:29:47;;;;;;;3.53;1.48;;;;;;;;;;4985230;28;20374;-73
2021/08/09 08:32:13;;;;;;;5.70;1.50;;;;;;;;;;4977213;28;20588;-73
2021/08/09 08:34:39;;;;;;;2.50;1.35;;;;;;;;;;4986337;28;20038;-73
2021/08/09 08:37:05;;;;;;;1.92;1.27;;;;;;;;;;4991933;28;20022;-73
2021/08/09 08:39:30;;;;;;;5.07;1.38;;;;;;;;;;4989476;28;20571;-74
2021/08/09 08:41:57;;;;;;;3.20;1.65;;;;;;;;;;4981697;28;20026;-74
2021/08/09 08:44:23;;;;;;;4.85;1.70;;;;;;;;;;4984764;28;20109;-74
2021/08/09 08:46:49;;;;;;;2.60;1.80;;;;;;;;;;4996279;28;20544;-74
2021/08/09 08:49:16;;;;;;;3.10;1.75;;;;;;;;;;4983919;28;20457;-74
2021/08/09 08:51:43;;;;;;;3.40;1.45;;;;;;;;;;4991128;28;20113;-74
2021/08/09 08:54:09;;;;;;;2.22;1.60;;;;;;;;;;4989303;28;20034;-74
2021/08/09 08:56:41;;;;;;;3.75;1.52;;;;;;;;;;4973911;28;20649;-74
2021/08/09 08:59:11;;;;;;;3.17;1.50;;;;;;;;;;4989922;28;20034;-74
2021/08/09 09:01:45;;;;;;;5.03;2.03;;;;;;;;;;4985974;28;20029;-74
2021/08/09 09:04:26;;;;;;;3.15;1.65;;;;;;;;;;4989296;28;20022;-73
2021/08/09 09:07:02;;;;;;;2.08;1.45;;;;;;;;;;4989496;28;20038;-73
2021/08/09 09:09:30;;;;;;;4.50;1.80;;;;;;;;;;4985949;28;20509;-72
2021/08/09 09:11:56;;;;;;;2.25;1.70;;;;;;;;;;4979429;28;20037;-72
2021/08/09 09:14:26;;;;;;;5.03;1.60;;;;;;;;;;4986084;28;20022;-72
2021/08/09 09:16:52;;;;;;;5.00;1.83;;;;;;;;;;4989021;28;20034;-72
2021/08/09 09:19:37;;;;;;;2.63;1.67;;;;;;;;;;4983541;28;20027;-73
2021/08/09 09:22:04;;;;;;;2.22;1.70;;;;;;;;;;4984687;28;20038;-72
2021/08/09 09:24:31;;;;;;;2.20;1.50;;;;;;;;;;4980178;28;20034;-72
2021/08/09 09:26:58;;;;;;;6.28;1.85;;;;;;;;;;4972541;28;20039;-72
2021/08/09 09:29:24;;;;;;;6.10;1.55;;;;;;;;;;4977457;28;20067;-72
2021/08/09 09:31:51;;;;;;;3.15;1.83;;;;;;;;;;4978842;28;20027;-72
2021/08/09 09:34:18;;;;;;;3.88;1.75;;;;;;;;;;4983949;28;20496;-72
2021/08/09 09:36:52;;;;;;;3.85;1.67;;;;;;;;;;4986148;28;20477;-73
2021/08/09 09:39:26;;;;;;;4.15;1.90;;;;;;;;;;4979525;28;20026;-73
2021/08/09 09:41:53;;;;;;;4.10;1.65;;;;;;;;;;4986611;28;20037;-73
2021/08/09 09:44:26;;;;;;;4.20;1.60;;;;;;;;;;4988786;28;20026;-73
2021/08/09 09:46:52;;;;;;;4.20;1.70;;;;;;;;;;4992817;28;20104;-73
2021/08/09 09:49:34;;;;;;;6.57;2.22;;;;;;;;;;4988812;28;20030;-73
2021/08/09 09:52:00;;;;;;;3.10;1.40;;;;;;;;;;4988032;28;20100;-73
2021/08/09 09:54:26;;;;;;;3.72;1.98;;;;;;;;;;4975703;28;20634;-73
2021/08/09 09:56:53;;;;;;;3.53;1.58;;;;;;;;;;4971888;28;20030;-73
2021/08/09 09:59:19;;;;;;;2.65;1.25;;;;;;;;;;4972086;28;20110;-73
2021/08/09 10:01:45;;;;;;;4.38;1.50;;;;;;;;;;4978261;28;20106;-72
2021/08/09 10:04:11;;;;;;;4.07;1.73;;;;;;;;;;4983856;28;20148;-72
2021/08/09 10:06:38;;;;;;;6.18;1.70;;;;;;;;;;4990967;28;20030;-72
2021/08/09 10:09:06;;;;;;;5.82;1.70;;;;;;;;;;4974698;28;20548;-72
2021/08/09 10:11:32;;;;;;;2.50;1.48;;;;;;;;;;4987070;28;20034;-72
2021/08/09 10:13:59;;;;;;;5.30;1.55;;;;;;;;;;4986550;28;20381;-72
2021/08/09 10:16:31;;;;;;;2.30;1.50;;;;;;;;;;4985628;28;20057;-72
2021/08/09 10:18:57;;;;;;;2.75;1.63;;;;;;;;;;4977688;28;20057;-72
2021/08/09 10:21:29;;;;;;;2.78;1.48;;;;;;;;;;4979661;28;20030;-72
2021/08/09 10:23:54;;;;;;;;;;;;;;;;;;4986388;28;20022;-72
2021/08/09 10:26:33;;;;;;;5.20;1.70;;;;;;;;;;4971721;28;19914;-72
2021/08/09 10:29:03;;;;;;;2.63;1.40;;;;;;;;;;4982386;28;20078;-72
2021/08/09 10:31:31;;;;;;;4.63;1.83;;;;;;;;;;4978251;28;20046;-72
2021/08/09 10:33:57;;;;;;;2.63;1.10;;;;;;;;;;4984408;28;20022;-73
2021/08/09 10:36:24;;;;;;;7.82;2.25;;;;;;;;;;4982218;28;20121;-72
2021/08/09 10:38:50;;;;;;;2.28;1.52;;;;;;;;;;4980040;28;20031;-72
2021/08/09 10:41:16;;;;;;;2.15;1.17;;;;;;;;;;4984092;28;20455;-72
2021/08/09 10:44:00;;;;;;;4.90;1.40;;;;;;;;;;4982217;28;20098;-72
2021/08/09 10:46:40;;;;;;;2.53;1.30;;;;;;;;;;5002640;28;20382;-72
2021/08/09 10:49:06;;;;;;;3.47;1.15;;;;;;;;;;4980023;28;20401;-72
2021/08/09 10:51:50;;;;;;;4.10;1.50;;;;;;;;;;4975338;28;20042;-72
2021/08/09 10:54:26;;;;;;;1.38;1.10;;;;;;;;;;4987896;28;20043;-72
2021/08/09 10:56:53;;;;;;;1.60;1.20;;;;;;;;;;4989704;28;20030;-72
2021/08/09 10:59:40;;;;;;;3.00;1.58;;;;;;;;;;4976921;28;20050;-73
2021/08/09 11:02:19;;;;;;;1.70;1.10;;;;;;;;;;4984623;28;20030;-72
2021/08/09 11:05:04;;;;;;;4.00;1.35;;;;;;;;;;4970386;28;20033;-72
2021/08/09 11:07:30;;;;;;;2.75;1.40;;;;;;;;;;4982381;28;20632;-79
2021/08/09 11:09:56;;;;;;;2.70;1.25;;;;;;;;;;4988735;28;20042;-72
2021/08/09 11:12:23;;;;;;;2.47;1.20;;;;;;;;;;4983867;28;20058;-72
2021/08/09 11:15:10;;;;;;;2.05;1.25;;;;;;;;;;4988200;28;20026;-72
2021/08/09 11:17:39;;;;;;;1.80;1.25;;;;;;;;;;4976517;28;20042;-72
2021/08/09 11:20:11;;;;;;;3.08;1.30;;;;;;;;;;4982988;28;20090;-72
2021/08/09 11:22:38;;;;;;;1.95;1.17;;;;;;;;;;4981335;28;20504;-72
2021/08/09 11:25:04;;;;;;;4.93;1.42;;;;;;;;;;4970717;28;20089;-72
2021/08/09 11:27:30;;;;;;;5.35;1.10;;;;;;;;;;4985213;28;20085;-72
2021/08/09 11:29:57;;;;;;;1.52;1.10;;;;;;;;;;4985056;28;20382;-74
2021/08/09 11:32:36;;;;;;;9.18;1.23;;;;;;;;;;4987216;28;20049;-71
2021/08/09 11:35:03;;;;;;;1.80;1.10;;;;;;;;;;4981991;28;20035;-72
2021/08/09 11:37:29;;;;;;;2.17;1.00;;;;;;;;;;4986654;28;20228;-72
2021/08/09 11:39:55;;;;;;;3.58;1.35;;;;;;;;;;4986563;28;20671;-73
2021/08/09 11:42:21;;;;;;;4.38;1.30;;;;;;;;;;4985532;28;20040;-73
2021/08/09 11:44:47;;;;;;;2.42;1.15;;;;;;;;;;4988363;28;20022;-73
2021/08/09 11:47:22;;;;;;;3.90;1.23;;;;;;;;;;4978522;28;20064;-74
2021/08/09 11:49:48;;;;;;;5.00;1.30;;;;;;;;;;4983136;28;20080;-73
2021/08/09 11:52:20;;;;;;;2.70;1.20;;;;;;;;;;4974658;28;20437;-73
2021/08/09 11:54:46;;;;;;;2.78;1.30;;;;;;;;;;4970159;28;20034;-73
2021/08/09 11:57:12;;;;;;;2.90;1.30;;;;;;;;;;4977215;28;20033;-74
2021/08/09 11:59:40;;;;;;;4.70;1.10;;;;;;;;;;4984677;28;20026;-73
2021/08/09 12:02:07;;;;;;;5.75;1.10;;;;;;;;;;4978930;28;20497;-73
2021/08/09 12:04:46;;;;;;;1.98;1.48;;;;;;;;;;4987056;28;20065;-83
2021/08/09 12:07:19;;;;;;;3.13;1.20;;;;;;;;;;4981820;28;20023;-74
2021/08/09 12:09:46;;;;;;;2.65;1.17;;;;;;;;;;4981675;28;20078;-74
2021/08/09 12:12:13;;;;;;;2.72;1.20;;;;;;;;;;4980274;28;20603;-74
2021/08/09 12:14:39;;;;;;;3.72;1.27;;;;;;;;;;4976569;28;20023;-74
2021/08/09 12:17:18;;;;;;;3.13;1.25;;;;;;;;;;4982622;28;20038;-75
2021/08/09 12:19:56;;;;;;;3.22;1.23;;;;;;;;;;4974569;28;20683;-75
2021/08/09 12:22:24;;;;;;;10.05;5.70;;;;;;;;;;4978171;28;20050;-76
2021/08/09 12:25:15;;;;;;;3.65;1.40;;;;;;;;;;4984409;28;20029;-75
2021/08/09 12:27:42;;;;;;;12.25;4.90;;;;;;;;;;4981246;28;20517;-87
2021/08/09 12:30:11;;;;;;;3.55;2.20;;;;;;;;;;4978511;28;20503;-75
2021/08/09 12:32:44;;;;;;;8.77;3.10;;;;;;;;;;4975004;28;21624;-74
2021/08/09 12:35:11;;;;;;;2.58;1.33;;;;;;;;;;4980570;28;20484;-75
2021/08/09 12:37:39;;;;;;;3.92;1.55;;;;;;;;;;4980782;28;20457;-76
2021/08/09 12:40:12;;;;;;;2.13;1.30;;;;;;;;;;4977090;28;20595;-74
2021/08/09 12:42:38;;;;;;;3.75;1.33;;;;;;;;;;4980057;28;20110;-74
2021/08/09 12:45:05;;;;;;;2.33;1.90;;;;;;;;;;4986922;28;20029;-73
2021/08/09 12:47:31;;;;;;;3.40;1.80;;;;;;;;;;4986729;28;20030;-74
2021/08/09 12:49:57;;;;;;;2.42;1.05;;;;;;;;;;4977695;28;20092;-75
2021/08/09 12:52:23;;;;;;;4.22;2.10;;;;;;;;;;4984562;28;20038;-81
2021/08/09 12:54:49;;;;;;;3.15;2.10;;;;;;;;;;4988355;28;20022;-74
2021/08/09 12:57:16;;;;;;;1.77;1.30;;;;;;;;;;4981872;28;20030;-73
2021/08/09 12:59:43;;;;;;;2.97;1.50;;;;;;;;;;4982356;28;20022;-73
2021/08/09 13:02:09;;;;;;;3.15;1.27;;;;;;;;;;4986470;28;20074;-73
2021/08/09 13:04:34;;;;;;;15.10;8.00;;;;;;;;;;4982614;28;20053;-73
2021/08/09 13:07:00;;;;;;;5.55;1.30;;;;;;;;;;4975226;28;20035;-73
2021/08/09 13:09:47;;;;;;;5.45;1.30;;;;;;;;;;4974560;28;20039;-72
2021/08/09 13:12:12;;;;;;;3.85;1.25;;;;;;;;;;4979094;28;20042;-72
2021/08/09 13:14:38;;;;;;;2.47;1.40;;;;;;;;;;4986035;28;20380;-73
2021/08/09 13:17:05;;;;;;;1.77;1.10;;;;;;;;;;4982386;28;20039;-73
2021/08/09 13:19:32;;;;;;;3.45;1.55;;;;;;;;;;4980561;28;20485;-75
2021/08/09 13:21:57;;;;;;;5.25;1.30;;;;;;;;;;4988650;28;20062;-75
2021/08/09 13:24:23;;;;;;;3.55;1.20;;;;;;;;;;4988794;28;20489;-75
2021/08/09 13:26:50;;;;;;;2.10;1.20;;;;;;;;;;4988884;28;20026;-75
2021/08/09 13:29:19;;;;;;;4.80;1.20;;;;;;;;;;4991110;28;20030;-75
2021/08/09 13:31:45;;;;;;;4.55;2.75;;;;;;;;;;4988364;28;20398;-75
2021/08/09 13:34:11;;;;;;;3.42;1.15;;;;;;;;;;4983103;28;20034;-76
2021/08/09 13:36:37;;;;;;;2.90;1.60;;;;;;;;;;4988162;28;20033;-76
2021/08/09 13:39:03;;;;;;;1.98;1.17;;;;;;;;;;4984642;28;20121;-76
2021/08/09 13:41:29;;;;;;;4.90;1.50;;;;;;;;;;4980208;28;20122;-75
2021/08/09 13:43:55;;;;;;;3.28;1.17;;;;;;;;;;4992012;28;20035;-73
2021/08/09 13:46:21;;;;;;;3.50;1.17;;;;;;;;;;4997202;28;20037;-74
2021/08/09 13:48:50;;;;;;;2.50;1.45;;;;;;;;;;4981112;28;20037;-75
2021/08/09 13:51:17;;;;;;;2.47;1.23;;;;;;;;;;4984315;28;20034;-75
2021/08/09 13:53:42;;;;;;;2.88;1.17;;;;;;;;;;4987273;28;20041;-75
2021/08/09 13:56:08;;;;;;;2.45;1.23;;;;;;;;;;4982847;28;20401;-76
2021/08/09 13:58:38;;;;;;;3.95;1.60;;;;;;;;;;4987138;28;20572;-77
2021/08/09 14:01:04;;;;;;;4.90;1.40;;;;;;;;;;4984202;28;20022;-78
2021/08/09 14:03:30;;;;;;;3.03;1.42;;;;;;;;;;4985286;28;20030;-78
2021/08/09 14:05:56;;;;;;;1.75;1.15;;;;;;;;;;4979840;28;20115;-77
2021/08/09 14:08:22;;;;;;;2.78;1.30;;;;;;;;;;4990445;28;20033;-75
2021/08/09 14:10:48;;;;;;;4.53;1.42;;;;;;;;;;4980235;28;20504;-76
2021/08/09 14:13:14;;;;;;;1.73;1.15;;;;;;;;;;4986831;28;20069;-77
2021/08/09 14:15:41;;;;;;;2.97;1.08;;;;;;;;;;4986987;28;20045;-76
2021/08/09 14:18:06;;;;;;;5.00;1.25;;;;;;;;;;4984869;28;20035;-76
2021/08/09 14:20:35;;;;;;;2.25;1.25;;;;;;;;;;4987207;28;20057;-77
2021/08/09 14:23:01;;;;;;;3.10;1.27;;;;;;;;;;4987337;28;20088;-77
2021/08/09 14:25:26;;;;;;;6.70;1.17;;;;;;;;;;4987074;28;20022;-77
2021/08/09 14:27:52;;;;;;;3.15;1.33;;;;;;;;;;4983179;28;20029;-76
2021/08/09 14:30:21;;;;;;;1.70;1.30;;;;;;;;;;4986278;28;20095;-76
2021/08/09 14:32:47;;;;;;;4.47;1.25;;;;;;;;;;4989361;28;20068;-77
2021/08/09 14:35:13;;;;;;;3.05;1.20;;;;;;;;;;4984161;28;20486;-77
2021/08/09 14:37:39;;;;;;;9.05;3.58;;;;;;;;;;4988614;28;20099;-77
2021/08/09 14:40:05;;;;;;;1.83;1.30;;;;;;;;;;4985044;28;20046;-76
2021/08/09 14:42:31;;;;;;;2.88;1.42;;;;;;;;;;4985150;28;20034;-77
2021/08/09 14:44:58;;;;;;;1.33;1.02;;;;;;;;;;4985842;28;20379;-77